sensor_id;sensor_type;location;lat;lon;timestamp;P1;durP1;ratioP1;P2;durP2;ratioP2
57730;SDS011;43570;47.476;19.040;2023-05-02T00:01:04;4.47;;;2.30;;
57730;SDS011;43570;47.476;19.040;2023-05-02T00:03:30;6.07;;;2.60;;
57730;SDS011;43570;47.476;19.040;2023-05-02T00:05:56;5.37;;;2.60;;
57730;SDS011;43570;47.476;19.040;2023-05-02T00:08:22;5.80;;;2.60;;
57730;SDS011;43570;47.476;19.040;2023-05-02T00:10:47;5.47;;;2.87;;
57730;SDS011;43570;47.476;19.040;2023-05-02T00:13:13;4.32;;;2.85;;
57730;SDS011;43570;47.476;19.040;2023-05-02T00:15:38;4.85;;;2.40;;
57730;SDS011;43570;47.476;19.040;2023-05-02T00:18:03;4.53;;;2.80;;
57730;SDS011;43570;47.476;19.040;2023-05-02T00:20:29;5.85;;;2.65;;
57730;SDS011;43570;47.476;19.040;2023-05-02T00:22:54;5.78;;;2.70;;
57730;SDS011;43570;47.476;19.040;2023-05-02T00:25:21;5.60;;;2.50;;
57730;SDS011;43570;47.476;19.040;2023-05-02T00:27:46;3.70;;;2.28;;
57730;SDS011;43570;47.476;19.040;2023-05-02T00:30:14;3.87;;;2.22;;
57730;SDS011;43570;47.476;19.040;2023-05-02T00:32:40;6.55;;;2.45;;
57730;SDS011;43570;47.476;19.040;2023-05-02T00:35:06;4.78;;;2.30;;
57730;SDS011;43570;47.476;19.040;2023-05-02T00:37:31;5.50;;;2.60;;
57730;SDS011;43570;47.476;19.040;2023-05-02T00:39:57;3.03;;;2.28;;
57730;SDS011;43570;47.476;19.040;2023-05-02T00:42:22;5.15;;;2.60;;
57730;SDS011;43570;47.476;19.040;2023-05-02T00:44:48;5.28;;;2.70;;
57730;SDS011;43570;47.476;19.040;2023-05-02T00:47:14;5.25;;;2.78;;
57730;SDS011;43570;47.476;19.040;2023-05-02T00:49:39;4.45;;;2.50;;
57730;SDS011;43570;47.476;19.040;2023-05-02T00:52:05;4.93;;;2.50;;
57730;SDS011;43570;47.476;19.040;2023-05-02T00:54:31;5.68;;;2.70;;
57730;SDS011;43570;47.476;19.040;2023-05-02T00:56:57;5.00;;;2.75;;
57730;SDS011;43570;47.476;19.040;2023-05-02T00:59:22;6.25;;;2.40;;
57730;SDS011;43570;47.476;19.040;2023-05-02T01:05:16;5.10;;;2.72;;
57730;SDS011;43570;47.476;19.040;2023-05-02T01:15:15;5.97;;;2.53;;
57730;SDS011;43570;47.476;19.040;2023-05-02T01:17:44;5.30;;;2.65;;
57730;SDS011;43570;47.476;19.040;2023-05-02T01:20:13;3.78;;;2.37;;
57730;SDS011;43570;47.476;19.040;2023-05-02T01:22:42;5.62;;;3.05;;
57730;SDS011;43570;47.476;19.040;2023-05-02T01:28:28;5.00;;;2.30;;
57730;SDS011;43570;47.476;19.040;2023-05-02T01:30:44;6.68;;;2.90;;
57730;SDS011;43570;47.476;19.040;2023-05-02T01:33:12;5.80;;;2.60;;
57730;SDS011;43570;47.476;19.040;2023-05-02T01:35:39;5.65;;;2.78;;
57730;SDS011;43570;47.476;19.040;2023-05-02T01:38:07;4.28;;;2.53;;
57730;SDS011;43570;47.476;19.040;2023-05-02T01:40:34;4.87;;;2.78;;
57730;SDS011;43570;47.476;19.040;2023-05-02T01:43:01;4.12;;;2.60;;
57730;SDS011;43570;47.476;19.040;2023-05-02T01:45:29;3.20;;;2.20;;
57730;SDS011;43570;47.476;19.040;2023-05-02T01:47:55;5.47;;;2.80;;
57730;SDS011;43570;47.476;19.040;2023-05-02T01:50:22;4.40;;;2.40;;
57730;SDS011;43570;47.476;19.040;2023-05-02T01:52:48;5.20;;;2.67;;
57730;SDS011;43570;47.476;19.040;2023-05-02T01:55:16;6.95;;;2.60;;
57730;SDS011;43570;47.476;19.040;2023-05-02T01:57:42;7.05;;;2.90;;
57730;SDS011;43570;47.476;19.040;2023-05-02T02:00:09;5.72;;;2.80;;
57730;SDS011;43570;47.476;19.040;2023-05-02T02:02:35;3.85;;;2.50;;
57730;SDS011;43570;47.476;19.040;2023-05-02T02:05:02;4.60;;;2.45;;
57730;SDS011;43570;47.476;19.040;2023-05-02T02:07:29;3.70;;;2.33;;
57730;SDS011;43570;47.476;19.040;2023-05-02T02:09:54;3.35;;;2.15;;
57730;SDS011;43570;47.476;19.040;2023-05-02T02:12:27;4.72;;;2.28;;
57730;SDS011;43570;47.476;19.040;2023-05-02T02:14:55;4.75;;;2.50;;
57730;SDS011;43570;47.476;19.040;2023-05-02T02:17:37;4.43;;;2.25;;
57730;SDS011;43570;47.476;19.040;2023-05-02T02:20:04;5.12;;;2.67;;
57730;SDS011;43570;47.476;19.040;2023-05-02T02:22:32;5.28;;;2.75;;
57730;SDS011;43570;47.476;19.040;2023-05-02T02:25:00;5.78;;;2.58;;
57730;SDS011;43570;47.476;19.040;2023-05-02T02:27:28;5.07;;;2.47;;
57730;SDS011;43570;47.476;19.040;2023-05-02T02:29:53;4.65;;;2.58;;
57730;SDS011;43570;47.476;19.040;2023-05-02T02:32:19;4.70;;;2.80;;
57730;SDS011;43570;47.476;19.040;2023-05-02T02:34:44;5.12;;;2.53;;
57730;SDS011;43570;47.476;19.040;2023-05-02T02:37:19;5.12;;;2.55;;
57730;SDS011;43570;47.476;19.040;2023-05-02T02:45:56;5.85;;;2.92;;
57730;SDS011;43570;47.476;19.040;2023-05-02T02:54:44;5.18;;;2.70;;
57730;SDS011;43570;47.476;19.040;2023-05-02T02:59:48;5.37;;;2.80;;
57730;SDS011;43570;47.476;19.040;2023-05-02T03:02:18;4.70;;;2.47;;
57730;SDS011;43570;47.476;19.040;2023-05-02T03:04:47;4.70;;;2.60;;
57730;SDS011;43570;47.476;19.040;2023-05-02T03:07:15;6.37;;;2.50;;
57730;SDS011;43570;47.476;19.040;2023-05-02T03:09:45;5.37;;;2.55;;
57730;SDS011;43570;47.476;19.040;2023-05-02T03:12:11;5.87;;;2.78;;
57730;SDS011;43570;47.476;19.040;2023-05-02T03:14:37;5.50;;;2.95;;
57730;SDS011;43570;47.476;19.040;2023-05-02T03:17:03;6.75;;;3.22;;
57730;SDS011;43570;47.476;19.040;2023-05-02T03:19:29;5.90;;;2.70;;
57730;SDS011;43570;47.476;19.040;2023-05-02T03:21:55;8.23;;;2.80;;
57730;SDS011;43570;47.476;19.040;2023-05-02T03:24:20;9.23;;;3.47;;
57730;SDS011;43570;47.476;19.040;2023-05-02T03:26:46;5.65;;;2.70;;
57730;SDS011;43570;47.476;19.040;2023-05-02T03:29:12;6.85;;;2.90;;
57730;SDS011;43570;47.476;19.040;2023-05-02T03:31:37;7.78;;;3.20;;
57730;SDS011;43570;47.476;19.040;2023-05-02T03:34:03;4.20;;;2.58;;
57730;SDS011;43570;47.476;19.040;2023-05-02T03:36:28;4.95;;;2.70;;
57730;SDS011;43570;47.476;19.040;2023-05-02T03:38:53;5.05;;;2.97;;
57730;SDS011;43570;47.476;19.040;2023-05-02T03:41:19;7.72;;;3.37;;
57730;SDS011;43570;47.476;19.040;2023-05-02T03:43:45;5.68;;;2.87;;
57730;SDS011;43570;47.476;19.040;2023-05-02T03:46:10;6.62;;;3.17;;
57730;SDS011;43570;47.476;19.040;2023-05-02T03:48:36;7.65;;;3.22;;
57730;SDS011;43570;47.476;19.040;2023-05-02T03:51:02;4.90;;;3.00;;
57730;SDS011;43570;47.476;19.040;2023-05-02T03:53:29;5.25;;;3.03;;
57730;SDS011;43570;47.476;19.040;2023-05-02T03:55:55;7.72;;;3.40;;
57730;SDS011;43570;47.476;19.040;2023-05-02T03:58:21;9.57;;;3.20;;
57730;SDS011;43570;47.476;19.040;2023-05-02T04:00:47;6.30;;;2.90;;
57730;SDS011;43570;47.476;19.040;2023-05-02T04:03:12;5.65;;;3.10;;
57730;SDS011;43570;47.476;19.040;2023-05-02T04:05:38;6.05;;;3.00;;
57730;SDS011;43570;47.476;19.040;2023-05-02T04:08:03;6.72;;;3.25;;
57730;SDS011;43570;47.476;19.040;2023-05-02T04:10:29;6.87;;;3.62;;
57730;SDS011;43570;47.476;19.040;2023-05-02T04:12:54;7.22;;;3.20;;
57730;SDS011;43570;47.476;19.040;2023-05-02T04:15:20;7.60;;;3.33;;
57730;SDS011;43570;47.476;19.040;2023-05-02T04:17:45;6.32;;;3.40;;
57730;SDS011;43570;47.476;19.040;2023-05-02T04:20:11;7.40;;;3.45;;
57730;SDS011;43570;47.476;19.040;2023-05-02T04:22:36;8.30;;;3.62;;
57730;SDS011;43570;47.476;19.040;2023-05-02T04:25:04;7.10;;;3.28;;
57730;SDS011;43570;47.476;19.040;2023-05-02T04:27:30;7.03;;;3.17;;
57730;SDS011;43570;47.476;19.040;2023-05-02T04:29:56;6.95;;;3.55;;
57730;SDS011;43570;47.476;19.040;2023-05-02T04:32:21;5.25;;;3.30;;
57730;SDS011;43570;47.476;19.040;2023-05-02T04:34:47;8.30;;;3.70;;
57730;SDS011;43570;47.476;19.040;2023-05-02T04:37:12;5.22;;;3.40;;
57730;SDS011;43570;47.476;19.040;2023-05-02T04:39:37;6.62;;;3.72;;
57730;SDS011;43570;47.476;19.040;2023-05-02T04:42:03;8.75;;;4.18;;
57730;SDS011;43570;47.476;19.040;2023-05-02T04:44:28;7.78;;;3.75;;
57730;SDS011;43570;47.476;19.040;2023-05-02T04:46:54;10.77;;;4.50;;
57730;SDS011;43570;47.476;19.040;2023-05-02T04:49:19;9.48;;;3.95;;
57730;SDS011;43570;47.476;19.040;2023-05-02T04:51:44;9.18;;;4.18;;
57730;SDS011;43570;47.476;19.040;2023-05-02T04:54:11;8.25;;;4.12;;
57730;SDS011;43570;47.476;19.040;2023-05-02T04:56:36;7.37;;;3.90;;
57730;SDS011;43570;47.476;19.040;2023-05-02T04:59:01;8.52;;;4.00;;
57730;SDS011;43570;47.476;19.040;2023-05-02T05:01:27;8.18;;;4.20;;
57730;SDS011;43570;47.476;19.040;2023-05-02T05:03:53;7.37;;;3.80;;
57730;SDS011;43570;47.476;19.040;2023-05-02T05:06:19;6.97;;;4.20;;
57730;SDS011;43570;47.476;19.040;2023-05-02T05:08:44;7.30;;;4.00;;
57730;SDS011;43570;47.476;19.040;2023-05-02T05:11:10;6.40;;;4.10;;
57730;SDS011;43570;47.476;19.040;2023-05-02T05:13:36;6.07;;;4.30;;
57730;SDS011;43570;47.476;19.040;2023-05-02T05:16:01;8.05;;;3.90;;
57730;SDS011;43570;47.476;19.040;2023-05-02T05:18:28;7.07;;;4.25;;
57730;SDS011;43570;47.476;19.040;2023-05-02T05:20:53;8.93;;;3.70;;
57730;SDS011;43570;47.476;19.040;2023-05-02T05:23:18;6.90;;;4.00;;
57730;SDS011;43570;47.476;19.040;2023-05-02T05:25:44;7.10;;;3.60;;
57730;SDS011;43570;47.476;19.040;2023-05-02T05:28:09;6.82;;;4.60;;
57730;SDS011;43570;47.476;19.040;2023-05-02T05:30:35;10.88;;;5.45;;
57730;SDS011;43570;47.476;19.040;2023-05-02T05:33:00;8.57;;;4.53;;
57730;SDS011;43570;47.476;19.040;2023-05-02T05:35:26;9.75;;;5.25;;
57730;SDS011;43570;47.476;19.040;2023-05-02T05:37:51;9.15;;;5.10;;
57730;SDS011;43570;47.476;19.040;2023-05-02T05:40:17;8.85;;;4.12;;
57730;SDS011;43570;47.476;19.040;2023-05-02T05:42:43;7.57;;;5.28;;
57730;SDS011;43570;47.476;19.040;2023-05-02T05:45:08;8.73;;;4.87;;
57730;SDS011;43570;47.476;19.040;2023-05-02T05:47:34;9.85;;;4.40;;
57730;SDS011;43570;47.476;19.040;2023-05-02T05:49:59;11.35;;;5.90;;
57730;SDS011;43570;47.476;19.040;2023-05-02T05:52:25;8.38;;;4.87;;
57730;SDS011;43570;47.476;19.040;2023-05-02T05:54:54;8.10;;;5.00;;
57730;SDS011;43570;47.476;19.040;2023-05-02T05:57:20;8.40;;;5.85;;
57730;SDS011;43570;47.476;19.040;2023-05-02T05:59:45;6.95;;;4.85;;
57730;SDS011;43570;47.476;19.040;2023-05-02T06:02:11;7.87;;;4.97;;
57730;SDS011;43570;47.476;19.040;2023-05-02T06:04:36;10.45;;;4.78;;
57730;SDS011;43570;47.476;19.040;2023-05-02T06:07:01;8.32;;;5.05;;
57730;SDS011;43570;47.476;19.040;2023-05-02T06:09:27;8.07;;;5.10;;
57730;SDS011;43570;47.476;19.040;2023-05-02T06:11:52;8.05;;;4.90;;
57730;SDS011;43570;47.476;19.040;2023-05-02T06:14:18;7.72;;;4.95;;
57730;SDS011;43570;47.476;19.040;2023-05-02T06:16:43;9.43;;;5.55;;
57730;SDS011;43570;47.476;19.040;2023-05-02T06:19:09;10.30;;;5.15;;
57730;SDS011;43570;47.476;19.040;2023-05-02T06:21:37;8.57;;;6.05;;
57730;SDS011;43570;47.476;19.040;2023-05-02T06:24:03;10.32;;;5.40;;
57730;SDS011;43570;47.476;19.040;2023-05-02T06:26:28;9.15;;;5.20;;
57730;SDS011;43570;47.476;19.040;2023-05-02T06:28:54;11.75;;;5.35;;
57730;SDS011;43570;47.476;19.040;2023-05-02T06:31:19;8.77;;;5.10;;
57730;SDS011;43570;47.476;19.040;2023-05-02T06:33:45;9.13;;;4.80;;
57730;SDS011;43570;47.476;19.040;2023-05-02T06:36:11;11.90;;;5.90;;
57730;SDS011;43570;47.476;19.040;2023-05-02T06:38:36;7.90;;;5.07;;
57730;SDS011;43570;47.476;19.040;2023-05-02T06:41:01;12.50;;;5.72;;
57730;SDS011;43570;47.476;19.040;2023-05-02T06:43:27;8.88;;;5.35;;
57730;SDS011;43570;47.476;19.040;2023-05-02T06:45:53;7.53;;;5.12;;
57730;SDS011;43570;47.476;19.040;2023-05-02T06:48:20;9.90;;;5.07;;
57730;SDS011;43570;47.476;19.040;2023-05-02T06:50:45;9.00;;;5.60;;
57730;SDS011;43570;47.476;19.040;2023-05-02T06:53:11;8.80;;;4.78;;
57730;SDS011;43570;47.476;19.040;2023-05-02T06:55:36;10.10;;;4.80;;
57730;SDS011;43570;47.476;19.040;2023-05-02T06:58:02;8.82;;;4.82;;
57730;SDS011;43570;47.476;19.040;2023-05-02T07:00:27;7.68;;;5.12;;
57730;SDS011;43570;47.476;19.040;2023-05-02T07:02:53;6.82;;;4.82;;
57730;SDS011;43570;47.476;19.040;2023-05-02T07:05:18;7.20;;;4.85;;
57730;SDS011;43570;47.476;19.040;2023-05-02T07:07:44;9.00;;;5.10;;
57730;SDS011;43570;47.476;19.040;2023-05-02T07:10:09;8.82;;;4.70;;
57730;SDS011;43570;47.476;19.040;2023-05-02T07:12:35;7.25;;;4.35;;
57730;SDS011;43570;47.476;19.040;2023-05-02T07:15:02;7.07;;;4.87;;
57730;SDS011;43570;47.476;19.040;2023-05-02T07:17:28;7.30;;;4.65;;
57730;SDS011;43570;47.476;19.040;2023-05-02T07:19:54;7.82;;;4.78;;
57730;SDS011;43570;47.476;19.040;2023-05-02T07:22:20;7.72;;;4.30;;
57730;SDS011;43570;47.476;19.040;2023-05-02T07:24:45;9.65;;;4.93;;
57730;SDS011;43570;47.476;19.040;2023-05-02T07:27:11;6.10;;;4.47;;
57730;SDS011;43570;47.476;19.040;2023-05-02T07:29:37;7.75;;;5.32;;
57730;SDS011;43570;47.476;19.040;2023-05-02T07:32:02;7.53;;;4.28;;
57730;SDS011;43570;47.476;19.040;2023-05-02T07:34:28;7.80;;;5.30;;
57730;SDS011;43570;47.476;19.040;2023-05-02T07:36:54;8.27;;;4.18;;
57730;SDS011;43570;47.476;19.040;2023-05-02T07:39:20;9.98;;;4.62;;
57730;SDS011;43570;47.476;19.040;2023-05-02T07:41:45;8.43;;;4.45;;
57730;SDS011;43570;47.476;19.040;2023-05-02T07:44:11;7.62;;;4.05;;
57730;SDS011;43570;47.476;19.040;2023-05-02T07:46:36;6.97;;;3.95;;
57730;SDS011;43570;47.476;19.040;2023-05-02T07:49:02;6.78;;;4.22;;
57730;SDS011;43570;47.476;19.040;2023-05-02T07:51:27;7.65;;;4.28;;
57730;SDS011;43570;47.476;19.040;2023-05-02T07:53:53;9.40;;;4.53;;
57730;SDS011;43570;47.476;19.040;2023-05-02T07:56:21;7.43;;;4.53;;
57730;SDS011;43570;47.476;19.040;2023-05-02T07:58:46;7.35;;;4.18;;
57730;SDS011;43570;47.476;19.040;2023-05-02T08:01:12;8.20;;;4.72;;
57730;SDS011;43570;47.476;19.040;2023-05-02T08:03:37;8.35;;;4.60;;
57730;SDS011;43570;47.476;19.040;2023-05-02T08:06:02;10.13;;;5.00;;
57730;SDS011;43570;47.476;19.040;2023-05-02T08:08:28;6.47;;;4.47;;
57730;SDS011;43570;47.476;19.040;2023-05-02T08:10:53;8.13;;;4.50;;
57730;SDS011;43570;47.476;19.040;2023-05-02T08:13:19;7.45;;;4.45;;
57730;SDS011;43570;47.476;19.040;2023-05-02T08:15:44;8.23;;;4.53;;
57730;SDS011;43570;47.476;19.040;2023-05-02T08:18:10;8.70;;;5.00;;
57730;SDS011;43570;47.476;19.040;2023-05-02T08:20:35;7.47;;;4.65;;
57730;SDS011;43570;47.476;19.040;2023-05-02T08:23:01;8.25;;;4.35;;
57730;SDS011;43570;47.476;19.040;2023-05-02T08:25:26;8.05;;;4.68;;
57730;SDS011;43570;47.476;19.040;2023-05-02T08:27:52;6.82;;;4.82;;
57730;SDS011;43570;47.476;19.040;2023-05-02T08:30:17;6.82;;;4.25;;
57730;SDS011;43570;47.476;19.040;2023-05-02T08:32:44;8.18;;;4.32;;
57730;SDS011;43570;47.476;19.040;2023-05-02T08:35:09;8.23;;;5.20;;
57730;SDS011;43570;47.476;19.040;2023-05-02T08:37:35;12.65;;;5.10;;
57730;SDS011;43570;47.476;19.040;2023-05-02T08:40:01;8.07;;;4.35;;
57730;SDS011;43570;47.476;19.040;2023-05-02T08:42:26;5.97;;;3.97;;
57730;SDS011;43570;47.476;19.040;2023-05-02T08:44:52;6.07;;;3.92;;
57730;SDS011;43570;47.476;19.040;2023-05-02T08:47:18;7.68;;;4.25;;
57730;SDS011;43570;47.476;19.040;2023-05-02T08:49:45;5.82;;;4.28;;
57730;SDS011;43570;47.476;19.040;2023-05-02T08:52:11;6.05;;;3.90;;
57730;SDS011;43570;47.476;19.040;2023-05-02T08:54:37;6.62;;;3.90;;
57730;SDS011;43570;47.476;19.040;2023-05-02T08:57:03;6.65;;;3.95;;
57730;SDS011;43570;47.476;19.040;2023-05-02T08:59:29;5.78;;;3.78;;
57730;SDS011;43570;47.476;19.040;2023-05-02T09:01:57;8.60;;;3.90;;
57730;SDS011;43570;47.476;19.040;2023-05-02T09:06:49;8.35;;;3.50;;
57730;SDS011;43570;47.476;19.040;2023-05-02T09:09:14;6.53;;;3.50;;
57730;SDS011;43570;47.476;19.040;2023-05-02T09:11:40;6.25;;;3.25;;
57730;SDS011;43570;47.476;19.040;2023-05-02T09:14:13;5.50;;;3.37;;
57730;SDS011;43570;47.476;19.040;2023-05-02T09:16:39;6.40;;;3.58;;
57730;SDS011;43570;47.476;19.040;2023-05-02T09:19:05;7.00;;;3.42;;
57730;SDS011;43570;47.476;19.040;2023-05-02T09:21:34;5.18;;;3.53;;
57730;SDS011;43570;47.476;19.040;2023-05-02T09:24:01;6.30;;;3.15;;
57730;SDS011;43570;47.476;19.040;2023-05-02T09:26:40;8.90;;;3.28;;
57730;SDS011;43570;47.476;19.040;2023-05-02T09:29:06;6.60;;;3.55;;
57730;SDS011;43570;47.476;19.040;2023-05-02T09:31:32;5.70;;;3.00;;
57730;SDS011;43570;47.476;19.040;2023-05-02T09:34:10;6.80;;;3.55;;
57730;SDS011;43570;47.476;19.040;2023-05-02T09:36:44;6.50;;;3.37;;
57730;SDS011;43570;47.476;19.040;2023-05-02T09:39:11;6.03;;;3.30;;
57730;SDS011;43570;47.476;19.040;2023-05-02T09:41:41;5.60;;;3.40;;
57730;SDS011;43570;47.476;19.040;2023-05-02T09:44:11;9.45;;;3.40;;
57730;SDS011;43570;47.476;19.040;2023-05-02T09:46:39;5.60;;;3.50;;
57730;SDS011;43570;47.476;19.040;2023-05-02T09:49:11;6.55;;;2.80;;
57730;SDS011;43570;47.476;19.040;2023-05-02T09:51:38;7.35;;;3.20;;
57730;SDS011;43570;47.476;19.040;2023-05-02T09:54:04;10.55;;;3.20;;
57730;SDS011;43570;47.476;19.040;2023-05-02T09:56:30;9.10;;;3.33;;
57730;SDS011;43570;47.476;19.040;2023-05-02T09:59:11;5.90;;;2.85;;
57730;SDS011;43570;47.476;19.040;2023-05-02T10:01:40;9.10;;;3.15;;
57730;SDS011;43570;47.476;19.040;2023-05-02T10:04:08;5.30;;;2.67;;
57730;SDS011;43570;47.476;19.040;2023-05-02T10:09:00;7.07;;;3.40;;
57730;SDS011;43570;47.476;19.040;2023-05-02T10:11:26;7.15;;;3.22;;
57730;SDS011;43570;47.476;19.040;2023-05-02T10:13:51;7.25;;;3.10;;
57730;SDS011;43570;47.476;19.040;2023-05-02T10:16:19;4.30;;;3.00;;
57730;SDS011;43570;47.476;19.040;2023-05-02T10:18:51;6.85;;;4.20;;
57730;SDS011;43570;47.476;19.040;2023-05-02T10:21:27;6.18;;;4.28;;
57730;SDS011;43570;47.476;19.040;2023-05-02T10:23:53;7.00;;;3.45;;
57730;SDS011;43570;47.476;19.040;2023-05-02T10:26:19;4.87;;;3.10;;
57730;SDS011;43570;47.476;19.040;2023-05-02T10:28:48;5.32;;;3.37;;
57730;SDS011;43570;47.476;19.040;2023-05-02T10:31:15;8.07;;;3.78;;
57730;SDS011;43570;47.476;19.040;2023-05-02T10:33:43;6.43;;;3.10;;
57730;SDS011;43570;47.476;19.040;2023-05-02T10:36:09;9.60;;;3.75;;
57730;SDS011;43570;47.476;19.040;2023-05-02T10:38:38;8.10;;;3.37;;
57730;SDS011;43570;47.476;19.040;2023-05-02T10:41:15;10.18;;;3.75;;
57730;SDS011;43570;47.476;19.040;2023-05-02T10:43:46;6.93;;;3.30;;
57730;SDS011;43570;47.476;19.040;2023-05-02T10:46:29;4.20;;;3.17;;
57730;SDS011;43570;47.476;19.040;2023-05-02T10:49:03;4.70;;;3.35;;
57730;SDS011;43570;47.476;19.040;2023-05-02T10:51:29;6.32;;;3.40;;
57730;SDS011;43570;47.476;19.040;2023-05-02T10:59:27;8.13;;;3.45;;
57730;SDS011;43570;47.476;19.040;2023-05-02T11:01:57;6.93;;;3.47;;
57730;SDS011;43570;47.476;19.040;2023-05-02T11:04:23;5.95;;;3.42;;
57730;SDS011;43570;47.476;19.040;2023-05-02T11:09:30;6.00;;;3.35;;
57730;SDS011;43570;47.476;19.040;2023-05-02T11:11:57;9.20;;;3.53;;
57730;SDS011;43570;47.476;19.040;2023-05-02T11:19:21;7.13;;;5.10;;
57730;SDS011;43570;47.476;19.040;2023-05-02T11:21:46;9.32;;;4.78;;
57730;SDS011;43570;47.476;19.040;2023-05-02T11:29:53;8.55;;;3.87;;
57730;SDS011;43570;47.476;19.040;2023-05-02T11:32:19;8.52;;;4.07;;
57730;SDS011;43570;47.476;19.040;2023-05-02T11:34:46;5.90;;;3.25;;
57730;SDS011;43570;47.476;19.040;2023-05-02T11:37:14;7.80;;;3.70;;
57730;SDS011;43570;47.476;19.040;2023-05-02T11:39:41;6.18;;;4.15;;
57730;SDS011;43570;47.476;19.040;2023-05-02T11:42:06;8.70;;;3.87;;
57730;SDS011;43570;47.476;19.040;2023-05-02T11:44:31;6.78;;;3.40;;
57730;SDS011;43570;47.476;19.040;2023-05-02T11:46:57;5.62;;;3.80;;
57730;SDS011;43570;47.476;19.040;2023-05-02T11:49:22;7.03;;;3.75;;
57730;SDS011;43570;47.476;19.040;2023-05-02T11:51:48;5.80;;;3.95;;
57730;SDS011;43570;47.476;19.040;2023-05-02T11:54:20;7.70;;;4.47;;
57730;SDS011;43570;47.476;19.040;2023-05-02T11:56:46;8.70;;;3.50;;
57730;SDS011;43570;47.476;19.040;2023-05-02T11:59:12;7.37;;;3.67;;
57730;SDS011;43570;47.476;19.040;2023-05-02T12:01:46;8.55;;;3.40;;
57730;SDS011;43570;47.476;19.040;2023-05-02T12:04:12;8.40;;;3.28;;
57730;SDS011;43570;47.476;19.040;2023-05-02T12:06:37;9.35;;;2.70;;
57730;SDS011;43570;47.476;19.040;2023-05-02T12:09:06;8.32;;;3.50;;
57730;SDS011;43570;47.476;19.040;2023-05-02T12:11:33;5.75;;;2.53;;
57730;SDS011;43570;47.476;19.040;2023-05-02T12:13:59;9.80;;;2.90;;
57730;SDS011;43570;47.476;19.040;2023-05-02T12:16:25;5.55;;;2.90;;
57730;SDS011;43570;47.476;19.040;2023-05-02T12:18:50;6.72;;;2.72;;
57730;SDS011;43570;47.476;19.040;2023-05-02T12:21:16;9.65;;;2.97;;
57730;SDS011;43570;47.476;19.040;2023-05-02T12:23:42;10.50;;;3.15;;
57730;SDS011;43570;47.476;19.040;2023-05-02T12:26:17;5.55;;;2.72;;
57730;SDS011;43570;47.476;19.040;2023-05-02T12:28:52;8.35;;;3.20;;
57730;SDS011;43570;47.476;19.040;2023-05-02T12:31:22;7.03;;;2.90;;
57730;SDS011;43570;47.476;19.040;2023-05-02T12:33:47;14.35;;;4.00;;
57730;SDS011;43570;47.476;19.040;2023-05-02T12:36:14;6.18;;;2.55;;
57730;SDS011;43570;47.476;19.040;2023-05-02T12:38:46;11.60;;;3.12;;
57730;SDS011;43570;47.476;19.040;2023-05-02T12:41:17;6.70;;;2.87;;
57730;SDS011;43570;47.476;19.040;2023-05-02T12:43:45;5.15;;;2.78;;
57730;SDS011;43570;47.476;19.040;2023-05-02T12:46:11;7.25;;;3.08;;
57730;SDS011;43570;47.476;19.040;2023-05-02T12:48:37;11.77;;;2.87;;
57730;SDS011;43570;47.476;19.040;2023-05-02T12:51:02;7.07;;;3.00;;
57730;SDS011;43570;47.476;19.040;2023-05-02T12:56:07;10.50;;;3.28;;
57730;SDS011;43570;47.476;19.040;2023-05-02T12:58:46;8.55;;;3.10;;
57730;SDS011;43570;47.476;19.040;2023-05-02T13:01:12;11.65;;;3.45;;
57730;SDS011;43570;47.476;19.040;2023-05-02T13:03:39;13.40;;;3.80;;
57730;SDS011;43570;47.476;19.040;2023-05-02T13:06:05;11.80;;;3.33;;
57730;SDS011;43570;47.476;19.040;2023-05-02T13:08:31;8.65;;;3.10;;
57730;SDS011;43570;47.476;19.040;2023-05-02T13:10:57;8.75;;;3.42;;
57730;SDS011;43570;47.476;19.040;2023-05-02T13:13:22;10.20;;;3.40;;
57730;SDS011;43570;47.476;19.040;2023-05-02T13:15:48;11.70;;;4.40;;
57730;SDS011;43570;47.476;19.040;2023-05-02T13:18:13;9.45;;;3.37;;
57730;SDS011;43570;47.476;19.040;2023-05-02T13:20:38;10.10;;;3.62;;
57730;SDS011;43570;47.476;19.040;2023-05-02T13:23:04;11.98;;;3.40;;
57730;SDS011;43570;47.476;19.040;2023-05-02T13:25:29;11.60;;;3.72;;
57730;SDS011;43570;47.476;19.040;2023-05-02T13:27:55;11.00;;;3.05;;
57730;SDS011;43570;47.476;19.040;2023-05-02T13:30:20;10.05;;;3.12;;
57730;SDS011;43570;47.476;19.040;2023-05-02T13:32:46;11.45;;;3.90;;
57730;SDS011;43570;47.476;19.040;2023-05-02T13:35:11;9.10;;;2.95;;
57730;SDS011;43570;47.476;19.040;2023-05-02T13:37:38;7.40;;;3.08;;
57730;SDS011;43570;47.476;19.040;2023-05-02T13:40:04;14.23;;;3.58;;
57730;SDS011;43570;47.476;19.040;2023-05-02T13:42:30;9.52;;;3.50;;
57730;SDS011;43570;47.476;19.040;2023-05-02T13:44:56;8.65;;;3.28;;
57730;SDS011;43570;47.476;19.040;2023-05-02T13:47:21;10.82;;;3.10;;
57730;SDS011;43570;47.476;19.040;2023-05-02T13:49:46;8.77;;;2.87;;
57730;SDS011;43570;47.476;19.040;2023-05-02T13:52:12;9.68;;;3.62;;
57730;SDS011;43570;47.476;19.040;2023-05-02T13:54:37;8.90;;;3.42;;
57730;SDS011;43570;47.476;19.040;2023-05-02T13:57:03;12.13;;;3.90;;
57730;SDS011;43570;47.476;19.040;2023-05-02T13:59:29;13.00;;;3.10;;
57730;SDS011;43570;47.476;19.040;2023-05-02T14:01:54;10.52;;;3.00;;
57730;SDS011;43570;47.476;19.040;2023-05-02T14:04:20;6.78;;;3.15;;
57730;SDS011;43570;47.476;19.040;2023-05-02T14:06:46;11.63;;;3.58;;
57730;SDS011;43570;47.476;19.040;2023-05-02T14:09:11;8.95;;;3.62;;
57730;SDS011;43570;47.476;19.040;2023-05-02T14:11:36;9.68;;;3.08;;
57730;SDS011;43570;47.476;19.040;2023-05-02T14:14:02;7.97;;;3.30;;
57730;SDS011;43570;47.476;19.040;2023-05-02T14:16:27;10.23;;;3.58;;
57730;SDS011;43570;47.476;19.040;2023-05-02T14:18:54;7.80;;;3.50;;
57730;SDS011;43570;47.476;19.040;2023-05-02T14:21:19;11.82;;;3.20;;
57730;SDS011;43570;47.476;19.040;2023-05-02T14:23:45;9.20;;;3.35;;
57730;SDS011;43570;47.476;19.040;2023-05-02T14:26:10;10.70;;;3.35;;
57730;SDS011;43570;47.476;19.040;2023-05-02T14:28:36;7.53;;;3.35;;
57730;SDS011;43570;47.476;19.040;2023-05-02T14:31:02;10.15;;;3.55;;
57730;SDS011;43570;47.476;19.040;2023-05-02T14:33:28;11.20;;;3.47;;
57730;SDS011;43570;47.476;19.040;2023-05-02T14:35:53;8.35;;;3.62;;
57730;SDS011;43570;47.476;19.040;2023-05-02T14:38:19;9.63;;;3.40;;
57730;SDS011;43570;47.476;19.040;2023-05-02T14:40:44;9.25;;;3.35;;
57730;SDS011;43570;47.476;19.040;2023-05-02T14:43:10;8.20;;;3.03;;
57730;SDS011;43570;47.476;19.040;2023-05-02T14:45:36;7.85;;;3.40;;
57730;SDS011;43570;47.476;19.040;2023-05-02T14:48:01;10.52;;;3.40;;
57730;SDS011;43570;47.476;19.040;2023-05-02T14:50:27;9.30;;;3.83;;
57730;SDS011;43570;47.476;19.040;2023-05-02T14:52:52;9.77;;;3.87;;
57730;SDS011;43570;47.476;19.040;2023-05-02T14:55:17;11.18;;;3.50;;
57730;SDS011;43570;47.476;19.040;2023-05-02T14:57:43;10.27;;;3.35;;
57730;SDS011;43570;47.476;19.040;2023-05-02T15:00:08;14.20;;;3.30;;
57730;SDS011;43570;47.476;19.040;2023-05-02T15:02:34;9.20;;;3.47;;
57730;SDS011;43570;47.476;19.040;2023-05-02T15:05:01;10.73;;;3.28;;
57730;SDS011;43570;47.476;19.040;2023-05-02T15:07:27;9.25;;;3.45;;
57730;SDS011;43570;47.476;19.040;2023-05-02T15:09:52;9.13;;;3.95;;
57730;SDS011;43570;47.476;19.040;2023-05-02T15:12:18;6.70;;;3.28;;
57730;SDS011;43570;47.476;19.040;2023-05-02T15:14:43;10.63;;;3.53;;
57730;SDS011;43570;47.476;19.040;2023-05-02T15:17:09;4.70;;;3.22;;
57730;SDS011;43570;47.476;19.040;2023-05-02T15:19:34;10.75;;;4.15;;
57730;SDS011;43570;47.476;19.040;2023-05-02T15:21:59;8.43;;;3.30;;
57730;SDS011;43570;47.476;19.040;2023-05-02T15:24:25;7.75;;;3.25;;